createdAt,value
2022-11-24T00:02:04.941Z,4.00
2022-11-24T00:07:08.602Z,3.90
2022-11-24T00:12:12.883Z,4.22
2022-11-24T00:17:18.731Z,4.50
2022-11-24T00:22:22.282Z,4.20
2022-11-24T00:27:25.822Z,4.20
2022-11-24T00:32:31.618Z,4.20
2022-11-24T00:42:38.010Z,4.05
2022-11-24T00:47:43.176Z,3.78
2022-11-24T00:52:46.759Z,4.20
2022-11-24T00:57:50.282Z,4.25
2022-11-24T01:02:55.533Z,4.20
2022-11-24T01:07:59.082Z,4.43
2022-11-24T01:13:02.736Z,3.90
2022-11-24T01:18:08.338Z,4.28
2022-11-24T01:23:11.907Z,4.68
2022-11-24T01:28:15.551Z,4.18
2022-11-24T01:33:20.742Z,4.43
2022-11-24T01:38:24.326Z,4.40
2022-11-24T01:43:27.908Z,3.65
2022-11-24T01:48:37.820Z,4.03
2022-11-24T01:53:44.659Z,3.80
2022-11-24T01:58:49.682Z,3.40
2022-11-24T02:03:55.022Z,3.92
2022-11-24T02:09:03.287Z,3.90
2022-11-24T02:14:08.942Z,3.63
2022-11-24T02:19:21.850Z,3.70
2022-11-24T02:24:33.262Z,3.72
2022-11-24T02:29:39.164Z,3.60
2022-11-24T02:34:42.702Z,3.30
2022-11-24T02:39:46.252Z,3.75
2022-11-24T02:44:55.745Z,3.72
2022-11-24T02:49:59.280Z,5.35
2022-11-24T02:55:02.827Z,5.80
2022-11-24T03:00:09.457Z,4.68
2022-11-24T03:05:13.494Z,4.60
2022-11-24T03:10:17.492Z,4.18
2022-11-24T03:15:22.726Z,4.72
2022-11-24T03:20:26.383Z,5.77
2022-11-24T03:25:29.931Z,5.05
2022-11-24T03:30:35.091Z,7.90
2022-11-24T03:35:38.646Z,6.55
2022-11-24T03:40:42.368Z,6.15
2022-11-24T03:45:48.957Z,6.40
2022-11-24T03:50:56.447Z,8.20
2022-11-24T03:56:02.747Z,6.00
2022-11-24T04:01:07.940Z,5.43
2022-11-24T04:06:11.897Z,5.28
2022-11-24T04:11:15.524Z,5.13
2022-11-24T04:16:21.431Z,4.65
2022-11-24T04:21:25.025Z,5.07
2022-11-24T04:26:28.807Z,4.50
2022-11-24T04:31:34.075Z,5.20
2022-11-24T04:36:37.697Z,4.70
2022-11-24T04:41:41.269Z,4.47
2022-11-24T04:46:46.544Z,4.18
2022-11-24T04:51:50.382Z,4.97
2022-11-24T04:56:54.093Z,4.28
2022-11-24T05:01:59.498Z,4.38
2022-11-24T05:07:03.095Z,4.00
2022-11-24T05:12:07.058Z,4.55
2022-11-24T05:17:12.278Z,4.10
2022-11-24T05:22:15.877Z,4.50
2022-11-24T05:27:19.512Z,4.65
2022-11-24T05:32:24.963Z,4.32
2022-11-24T05:37:29.723Z,4.10
2022-11-24T05:42:33.279Z,4.00
2022-11-24T05:47:39.456Z,4.25
2022-11-24T05:52:43.207Z,4.43
2022-11-24T05:57:47.642Z,4.05
2022-11-24T06:02:53.861Z,4.20
2022-11-24T06:13:00.537Z,4.13
2022-11-24T06:18:05.882Z,4.10
2022-11-24T06:23:09.441Z,4.50
2022-11-24T06:28:13.006Z,4.50
2022-11-24T06:33:18.194Z,4.43
2022-11-24T06:38:24.405Z,4.43
2022-11-24T06:48:33.816Z,4.07
2022-11-24T06:53:38.605Z,4.03
2022-11-24T06:58:42.785Z,4.20
2022-11-24T07:03:48.404Z,3.80
2022-11-24T07:08:52.767Z,3.70
2022-11-24T07:14:00.124Z,3.70
2022-11-24T07:19:05.769Z,3.50
2022-11-24T07:24:10.359Z,3.47
2022-11-24T07:29:13.921Z,3.53
2022-11-24T07:34:19.152Z,3.60
2022-11-24T07:39:22.696Z,3.45
2022-11-24T07:44:26.263Z,3.25
2022-11-24T07:49:31.478Z,3.05
2022-11-24T07:54:35.217Z,3.10
2022-11-24T07:59:39.010Z,3.20
2022-11-24T08:04:44.190Z,2.90
2022-11-24T08:09:47.748Z,2.95
2022-11-24T08:14:51.598Z,3.20
2022-11-24T08:19:56.805Z,3.08
2022-11-24T08:25:00.392Z,2.70
2022-11-24T08:30:04.015Z,2.60
2022-11-24T08:35:14.025Z,2.80
2022-11-24T08:40:18.580Z,2.25
2022-11-24T08:45:23.845Z,2.60
2022-11-24T08:50:30.782Z,2.70
2022-11-24T08:55:34.324Z,2.80
2022-11-24T09:00:37.945Z,2.13
2022-11-24T09:05:51.781Z,2.30
2022-11-24T09:11:00.687Z,2.00
2022-11-24T09:16:04.970Z,2.47
2022-11-24T09:21:11.470Z,2.70
2022-11-24T09:26:16.302Z,2.45
2022-11-24T09:31:19.884Z,2.50
2022-11-24T09:36:25.561Z,2.40
2022-11-24T09:41:49.535Z,2.97
2022-11-24T09:47:02.754Z,2.63
2022-11-24T09:52:13.684Z,2.75
2022-11-24T09:57:20.066Z,2.78
2022-11-24T10:07:33.976Z,2.80
2022-11-24T10:12:55.131Z,2.88
2022-11-24T10:18:33.500Z,2.88
2022-11-24T10:24:06.305Z,2.55
2022-11-24T10:29:21.053Z,2.50
2022-11-24T10:34:29.638Z,2.40
2022-11-24T10:39:40.316Z,2.33
2022-11-24T10:44:44.447Z,2.63
2022-11-24T10:49:56.330Z,2.50
2022-11-24T10:55:02.778Z,2.40
2022-11-24T11:05:39.803Z,2.40
2022-11-24T11:10:46.360Z,2.58
2022-11-24T11:15:50.060Z,2.50
2022-11-24T11:20:55.455Z,2.67
2022-11-24T11:26:37.312Z,2.58
2022-11-24T11:31:41.393Z,2.50
2022-11-24T11:36:47.174Z,3.05
2022-11-24T11:42:01.252Z,2.60
2022-11-24T11:47:15.024Z,2.70
2022-11-24T11:52:58.078Z,3.00
2022-11-24T11:58:19.098Z,2.75
2022-11-24T12:03:49.347Z,2.55
2022-11-24T12:09:19.691Z,2.70
2022-11-24T12:14:42.185Z,2.50
2022-11-24T12:20:04.146Z,2.60
2022-11-24T12:25:23.834Z,3.03
2022-11-24T12:30:38.743Z,2.67
2022-11-24T12:35:45.360Z,2.95
2022-11-24T12:46:45.513Z,3.03
2022-11-24T12:51:55.503Z,3.05
2022-11-24T12:57:07.731Z,2.85
2022-11-24T13:02:26.079Z,3.30
2022-11-24T13:07:43.590Z,3.50
2022-11-24T13:12:57.488Z,3.15
2022-11-24T13:18:10.490Z,3.00
2022-11-24T13:23:25.378Z,3.17
2022-11-24T13:29:08.968Z,3.17
2022-11-24T13:35:03.091Z,3.10
2022-11-24T13:40:45.872Z,3.10
2022-11-24T13:45:58.158Z,3.20
2022-11-24T13:51:25.021Z,3.20
2022-11-24T14:01:35.317Z,3.10
2022-11-24T14:06:43.172Z,3.17
2022-11-24T14:11:57.482Z,3.60
2022-11-24T14:17:17.870Z,3.33
2022-11-24T14:22:25.354Z,3.40
2022-11-24T14:27:32.168Z,3.10
2022-11-24T14:32:35.757Z,3.25
2022-11-24T14:37:40.955Z,3.28
2022-11-24T14:42:51.056Z,3.45
2022-11-24T14:47:54.639Z,2.97
2022-11-24T14:53:00.594Z,3.70
2022-11-24T14:58:22.044Z,3.70
2022-11-24T15:03:25.620Z,3.85
2022-11-24T15:08:38.109Z,3.28
2022-11-24T15:13:52.038Z,3.50
2022-11-24T15:19:00.267Z,3.40
2022-11-24T15:24:16.598Z,3.28
2022-11-24T15:29:20.204Z,2.95
2022-11-24T15:34:23.756Z,3.40
2022-11-24T15:39:28.967Z,3.33
2022-11-24T15:44:32.783Z,3.60
2022-11-24T15:49:36.524Z,3.22
2022-11-24T15:54:41.754Z,3.45
2022-11-24T15:59:45.415Z,3.40
2022-11-24T16:04:49.084Z,3.40
2022-11-24T16:09:54.405Z,3.58
2022-11-24T16:14:57.972Z,3.70
2022-11-24T16:20:01.529Z,3.80
2022-11-24T16:25:07.474Z,3.92
2022-11-24T16:30:13.604Z,4.63
2022-11-24T16:35:17.348Z,4.60
2022-11-24T16:40:22.600Z,4.35
2022-11-24T16:45:26.256Z,4.35
2022-11-24T16:50:29.877Z,5.43
2022-11-24T16:55:35.094Z,4.80
2022-11-24T17:00:38.668Z,4.85
2022-11-24T17:05:42.239Z,4.85
2022-11-24T17:10:47.474Z,4.88
2022-11-24T17:15:54.139Z,5.27
2022-11-24T17:21:00.284Z,5.65
2022-11-24T17:26:11.861Z,6.57
2022-11-24T17:31:20.579Z,5.80
2022-11-24T17:36:27.653Z,6.20
2022-11-24T17:41:33.658Z,6.20
2022-11-24T17:51:40.043Z,5.32
2022-11-24T17:56:45.602Z,5.43
2022-11-24T18:01:49.136Z,5.32
2022-11-24T18:06:52.688Z,5.30
2022-11-24T18:11:57.891Z,5.07
2022-11-24T18:17:01.705Z,4.87
2022-11-24T18:22:05.359Z,5.47
2022-11-24T18:27:10.564Z,4.85
2022-11-24T18:32:14.159Z,4.87
2022-11-24T18:37:17.887Z,5.05
2022-11-24T18:42:23.110Z,5.15
2022-11-24T18:47:26.665Z,5.07
2022-11-24T18:52:30.254Z,5.75
2022-11-24T18:57:35.436Z,6.10
2022-11-24T19:02:39.045Z,6.13
2022-11-24T19:07:42.653Z,6.32
2022-11-24T19:12:47.876Z,6.25
2022-11-24T19:17:51.427Z,6.93
2022-11-24T19:22:56.635Z,7.85
2022-11-24T19:28:01.905Z,8.27
2022-11-24T19:33:07.293Z,8.20
2022-11-24T19:38:14.782Z,8.97
2022-11-24T19:43:20.408Z,7.85
2022-11-24T19:48:23.940Z,8.98
2022-11-24T19:53:27.535Z,9.13
2022-11-24T19:58:33.287Z,8.98
2022-11-24T20:03:37.164Z,7.55
2022-11-24T20:08:42.344Z,8.23
2022-11-24T20:13:48.350Z,8.35
2022-11-24T20:18:52.090Z,9.07
2022-11-24T20:23:59.840Z,9.25
2022-11-24T20:29:05.725Z,9.68
2022-11-24T20:34:10.324Z,9.57
2022-11-24T20:39:16.635Z,10.32
2022-11-24T20:44:22.429Z,9.20
2022-11-24T20:49:26.594Z,10.45
2022-11-24T20:54:30.223Z,10.75
2022-11-24T20:59:35.539Z,12.07
2022-11-24T21:04:39.202Z,13.27
2022-11-24T21:09:42.773Z,14.45
2022-11-24T21:14:48.891Z,14.35
2022-11-24T21:19:55.743Z,13.82
2022-11-24T21:25:01.741Z,13.15
2022-11-24T21:30:08.122Z,12.85
2022-11-24T21:35:11.672Z,13.20
2022-11-24T21:40:15.480Z,14.23
2022-11-24T21:45:20.783Z,14.75
2022-11-24T21:50:24.385Z,15.55
2022-11-24T21:55:28.015Z,16.25
2022-11-24T22:00:33.197Z,15.85
2022-11-24T22:05:36.785Z,14.63
2022-11-24T22:10:40.357Z,15.18
2022-11-24T22:15:45.645Z,15.40
2022-11-24T22:20:55.667Z,14.30
2022-11-24T22:26:04.365Z,14.98
2022-11-24T22:31:11.140Z,15.50
2022-11-24T22:36:16.175Z,16.27
2022-11-24T22:41:19.809Z,24.37
2022-11-24T22:46:26.618Z,14.18
2022-11-24T22:51:31.937Z,14.95
2022-11-24T22:56:35.630Z,12.15
2022-11-24T23:01:40.818Z,14.18
2022-11-24T23:06:44.420Z,12.70
2022-11-24T23:11:48.012Z,11.73
2022-11-24T23:16:54.947Z,10.45
2022-11-24T23:21:58.468Z,12.00
2022-11-24T23:27:01.999Z,10.85
2022-11-24T23:32:07.611Z,10.10
2022-11-24T23:42:14.020Z,10.40
2022-11-24T23:47:19.215Z,8.90
2022-11-24T23:52:22.791Z,9.95
2022-11-24T23:57:26.376Z,10.32
